createdAt,value
2022-09-16T00:02:42.921Z,3.20
2022-09-16T00:05:50.127Z,4.13
2022-09-16T00:08:55.395Z,3.30
2022-09-16T00:11:58.606Z,3.97
2022-09-16T00:15:01.766Z,3.35
2022-09-16T00:18:05.212Z,3.88
2022-09-16T00:21:11.245Z,3.33
2022-09-16T00:24:15.725Z,3.65
2022-09-16T00:27:19.031Z,3.47
2022-09-16T00:30:22.197Z,4.00
2022-09-16T00:33:25.905Z,4.15
2022-09-16T00:36:31.103Z,3.55
2022-09-16T00:39:34.489Z,3.83
2022-09-16T00:42:41.847Z,3.25
2022-09-16T00:45:47.858Z,5.25
2022-09-16T00:48:51.737Z,3.17
2022-09-16T00:52:01.979Z,3.50
2022-09-16T00:55:09.760Z,3.67
2022-09-16T00:58:19.692Z,3.58
2022-09-16T01:01:23.588Z,4.05
2022-09-16T01:04:30.697Z,3.60
2022-09-16T01:07:41.285Z,3.72
2022-09-16T01:10:44.715Z,3.25
2022-09-16T01:13:48.677Z,3.63
2022-09-16T01:16:59.711Z,3.45
2022-09-16T01:20:35.921Z,3.47
2022-09-16T01:24:14.621Z,3.70
2022-09-16T01:27:56.053Z,3.80
2022-09-16T01:31:13.011Z,3.67
2022-09-16T01:34:25.460Z,3.67
2022-09-16T01:37:39.125Z,3.85
2022-09-16T01:40:51.008Z,4.03
2022-09-16T01:44:00.883Z,4.03
2022-09-16T01:47:12.000Z,3.70
2022-09-16T01:50:22.796Z,3.80
2022-09-16T01:53:34.039Z,4.18
2022-09-16T01:56:44.714Z,3.10
2022-09-16T01:59:53.750Z,4.45
2022-09-16T02:03:03.497Z,3.75
2022-09-16T02:06:09.744Z,3.40
2022-09-16T02:09:17.549Z,3.47
2022-09-16T02:12:26.595Z,3.63
2022-09-16T02:15:31.631Z,4.00
2022-09-16T02:18:41.063Z,3.60
2022-09-16T02:21:46.068Z,4.07
2022-09-16T02:24:50.036Z,3.70
2022-09-16T02:27:55.326Z,3.92
2022-09-16T02:31:02.436Z,4.35
2022-09-16T02:34:14.015Z,4.30
2022-09-16T02:37:19.966Z,3.50
2022-09-16T02:40:27.049Z,3.80
2022-09-16T02:43:31.035Z,3.80
2022-09-16T02:46:40.991Z,4.35
2022-09-16T02:49:53.068Z,4.47
2022-09-16T02:53:01.498Z,4.53
2022-09-16T02:56:13.466Z,3.65
2022-09-16T02:59:18.018Z,3.70
2022-09-16T03:02:21.623Z,3.65
2022-09-16T03:05:30.155Z,3.25
2022-09-16T03:08:33.699Z,3.30
2022-09-16T03:11:58.325Z,3.97
2022-09-16T03:15:15.707Z,4.45
2022-09-16T03:18:34.834Z,4.00
2022-09-16T03:21:45.877Z,4.10
2022-09-16T03:24:58.150Z,4.40
2022-09-16T03:28:09.709Z,4.47
2022-09-16T03:31:19.360Z,4.00
2022-09-16T03:34:28.325Z,4.60
2022-09-16T03:37:35.716Z,4.07
2022-09-16T03:40:39.612Z,4.40
2022-09-16T03:43:53.080Z,4.55
2022-09-16T03:46:57.149Z,4.57
2022-09-16T03:50:00.340Z,4.75
2022-09-16T03:53:05.500Z,4.63
2022-09-16T03:56:09.064Z,5.10
2022-09-16T03:59:12.301Z,4.82
2022-09-16T04:02:15.510Z,4.68
2022-09-16T04:05:18.835Z,4.45
2022-09-16T04:08:23.927Z,4.78
2022-09-16T04:11:29.769Z,5.15
2022-09-16T04:14:33.067Z,5.10
2022-09-16T04:17:36.516Z,4.55
2022-09-16T04:20:40.179Z,5.57
2022-09-16T04:23:44.824Z,5.18
2022-09-16T04:26:48.109Z,4.90
2022-09-16T04:29:51.359Z,7.57
2022-09-16T04:32:55.456Z,5.03
2022-09-16T04:36:04.597Z,5.88
2022-09-16T04:39:09.356Z,5.75
2022-09-16T04:42:13.365Z,6.38
2022-09-16T04:45:16.714Z,6.82
2022-09-16T04:48:19.996Z,6.18
2022-09-16T04:51:25.639Z,6.55
2022-09-16T04:54:30.347Z,8.02
2022-09-16T04:57:34.095Z,6.70
2022-09-16T05:00:37.309Z,8.68
2022-09-16T05:03:41.226Z,7.05
2022-09-16T05:06:50.700Z,8.13
2022-09-16T05:09:55.311Z,6.75
2022-09-16T05:12:58.569Z,5.72
2022-09-16T05:16:07.461Z,5.72
2022-09-16T05:19:13.261Z,4.90
2022-09-16T05:22:16.449Z,5.50
2022-09-16T05:25:21.409Z,5.47
2022-09-16T05:28:24.617Z,5.05
2022-09-16T05:31:29.248Z,7.35
2022-09-16T05:34:32.673Z,5.85
2022-09-16T05:37:35.866Z,5.65
2022-09-16T05:40:40.517Z,5.32
2022-09-16T05:43:43.981Z,8.13
2022-09-16T05:46:47.186Z,6.20
2022-09-16T05:49:50.437Z,6.47
2022-09-16T05:52:53.607Z,6.03
2022-09-16T05:55:59.692Z,6.93
2022-09-16T05:59:03.290Z,5.50
2022-09-16T06:02:06.614Z,5.18
2022-09-16T06:05:10.159Z,5.55
2022-09-16T06:08:13.411Z,6.05
2022-09-16T06:11:18.282Z,6.10
2022-09-16T06:14:22.755Z,5.63
2022-09-16T06:17:25.957Z,7.40
2022-09-16T06:20:29.236Z,6.53
2022-09-16T06:23:32.560Z,6.53
2022-09-16T06:26:38.929Z,6.40
2022-09-16T06:29:42.127Z,5.28
2022-09-16T06:32:45.405Z,6.50
2022-09-16T06:35:48.615Z,5.35
2022-09-16T06:38:52.333Z,6.20
2022-09-16T06:41:56.990Z,5.22
2022-09-16T06:45:12.768Z,7.15
2022-09-16T06:48:16.019Z,5.63
2022-09-16T06:51:22.931Z,5.95
2022-09-16T06:54:26.288Z,5.55
2022-09-16T06:57:32.242Z,4.82
2022-09-16T07:00:35.496Z,5.15
2022-09-16T07:03:39.998Z,4.90
2022-09-16T07:07:09.228Z,5.03
2022-09-16T07:10:07.624Z,5.07
2022-09-16T07:13:12.205Z,4.57
2022-09-16T07:16:19.119Z,4.47
2022-09-16T07:19:22.459Z,5.60
2022-09-16T07:22:25.666Z,4.20
2022-09-16T07:25:32.465Z,5.03
2022-09-16T07:28:41.120Z,3.78
2022-09-16T07:31:44.587Z,4.70
2022-09-16T07:34:47.793Z,4.13
2022-09-16T07:37:51.000Z,3.92
2022-09-16T07:40:54.255Z,4.18
2022-09-16T07:44:00.697Z,4.25
2022-09-16T07:47:04.052Z,4.05
2022-09-16T07:50:08.349Z,4.38
2022-09-16T07:53:11.547Z,3.95
2022-09-16T07:56:17.655Z,4.40
2022-09-16T07:59:22.277Z,3.83
2022-09-16T08:02:25.647Z,3.88
2022-09-16T08:05:28.917Z,4.63
2022-09-16T08:08:32.338Z,4.65
2022-09-16T08:11:35.648Z,4.00
2022-09-16T08:14:40.320Z,5.68
2022-09-16T08:17:43.656Z,3.95
2022-09-16T08:20:46.910Z,5.10
2022-09-16T08:23:50.578Z,4.35
2022-09-16T08:30:05.059Z,4.63
2022-09-16T08:33:08.537Z,4.60
2022-09-16T08:36:15.887Z,4.07
2022-09-16T08:39:19.686Z,4.15
2022-09-16T08:42:33.198Z,4.60
2022-09-16T08:45:45.733Z,6.15
2022-09-16T08:48:57.086Z,4.70
2022-09-16T08:52:03.875Z,4.20
2022-09-16T08:55:12.043Z,3.97
2022-09-16T08:58:18.717Z,4.43
2022-09-16T09:01:31.140Z,5.28
2022-09-16T09:04:34.695Z,4.93
2022-09-16T09:07:54.827Z,4.63
2022-09-16T09:11:03.423Z,6.22
2022-09-16T09:14:29.940Z,4.40
2022-09-16T09:17:49.426Z,5.15
2022-09-16T09:21:00.541Z,4.50
2022-09-16T09:24:28.439Z,4.90
2022-09-16T09:27:41.854Z,4.70
2022-09-16T09:30:53.718Z,4.57
2022-09-16T09:34:13.293Z,5.00
2022-09-16T09:37:36.975Z,5.03
2022-09-16T09:40:45.102Z,4.90
2022-09-16T09:43:54.086Z,5.07
2022-09-16T09:47:03.010Z,4.60
2022-09-16T09:50:17.886Z,4.88
2022-09-16T09:53:25.325Z,5.30
2022-09-16T09:56:33.274Z,4.55
2022-09-16T09:59:42.593Z,4.45
2022-09-16T10:02:49.857Z,4.20
2022-09-16T10:05:54.819Z,4.03
2022-09-16T10:09:00.308Z,4.70
2022-09-16T10:12:04.638Z,5.10
2022-09-16T10:15:20.271Z,4.97
2022-09-16T10:18:29.805Z,4.43
2022-09-16T10:21:45.938Z,4.20
2022-09-16T10:24:55.984Z,3.90
2022-09-16T10:28:01.466Z,4.40
2022-09-16T10:31:08.258Z,4.60
2022-09-16T10:34:19.483Z,3.97
2022-09-16T10:37:27.929Z,4.32
2022-09-16T10:40:32.624Z,4.43
2022-09-16T10:43:39.065Z,4.30
2022-09-16T10:46:53.095Z,4.15
2022-09-16T10:49:58.473Z,3.42
2022-09-16T10:53:03.214Z,4.00
2022-09-16T10:56:08.564Z,3.78
2022-09-16T10:59:13.310Z,3.63
2022-09-16T11:02:32.436Z,4.93
2022-09-16T11:05:45.887Z,3.40
2022-09-16T11:09:01.307Z,3.88
2022-09-16T11:12:28.000Z,4.10
2022-09-16T11:15:44.324Z,3.97
2022-09-16T11:18:57.479Z,3.85
2022-09-16T11:22:13.563Z,3.53
2022-09-16T11:25:30.760Z,3.60
2022-09-16T11:28:56.624Z,4.30
2022-09-16T11:32:11.103Z,4.40
2022-09-16T11:35:34.929Z,4.18
2022-09-16T11:38:46.930Z,3.97
2022-09-16T11:42:02.539Z,4.50
2022-09-16T11:45:22.033Z,4.22
2022-09-16T11:48:42.672Z,4.07
2022-09-16T11:52:02.638Z,4.90
2022-09-16T11:55:23.839Z,4.32
2022-09-16T11:58:45.357Z,4.20
2022-09-16T12:01:54.075Z,5.00
2022-09-16T12:05:03.230Z,3.90
2022-09-16T12:08:12.309Z,3.55
2022-09-16T12:11:33.007Z,4.32
2022-09-16T12:14:40.266Z,3.78
2022-09-16T12:17:52.117Z,4.40
2022-09-16T12:21:04.247Z,3.67
2022-09-16T12:24:13.449Z,4.25
2022-09-16T12:27:28.891Z,3.75
2022-09-16T12:30:38.796Z,3.53
2022-09-16T12:33:47.341Z,3.85
2022-09-16T12:37:00.552Z,3.67
2022-09-16T12:40:05.866Z,5.50
2022-09-16T12:43:37.185Z,5.28
2022-09-16T12:47:14.367Z,3.78
2022-09-16T12:50:41.088Z,3.63
2022-09-16T12:53:57.635Z,3.20
2022-09-16T12:57:26.008Z,3.55
2022-09-16T13:00:33.862Z,3.35
2022-09-16T13:03:43.973Z,3.55
2022-09-16T13:06:50.325Z,3.63
2022-09-16T13:10:03.172Z,2.97
2022-09-16T13:13:08.852Z,3.63
2022-09-16T13:16:12.653Z,2.78
2022-09-16T13:19:42.387Z,3.30
2022-09-16T13:22:50.254Z,2.35
2022-09-16T13:26:00.529Z,3.70
2022-09-16T13:29:03.780Z,3.05
2022-09-16T13:32:07.114Z,3.20
2022-09-16T13:35:35.832Z,3.72
2022-09-16T13:38:40.801Z,2.90
2022-09-16T13:41:46.887Z,3.30
2022-09-16T13:44:50.212Z,2.30
2022-09-16T13:47:54.113Z,2.80
2022-09-16T13:51:00.779Z,2.92
2022-09-16T13:54:04.638Z,3.25
2022-09-16T13:57:22.998Z,3.15
2022-09-16T14:00:32.370Z,2.65
2022-09-16T14:03:47.725Z,2.78
2022-09-16T14:07:07.635Z,2.50
2022-09-16T14:10:18.314Z,2.60
2022-09-16T14:13:23.486Z,2.50
2022-09-16T14:16:29.280Z,2.28
2022-09-16T14:19:36.963Z,2.65
2022-09-16T14:22:44.482Z,2.45
2022-09-16T14:25:49.351Z,2.22
2022-09-16T14:29:04.092Z,2.40
2022-09-16T14:32:14.830Z,2.80
2022-09-16T14:35:21.005Z,2.72
2022-09-16T14:41:59.611Z,2.58
2022-09-16T14:45:04.204Z,2.90
2022-09-16T14:48:10.437Z,1.88
2022-09-16T14:51:21.796Z,1.95
2022-09-16T14:54:28.344Z,2.05
2022-09-16T14:57:33.471Z,2.10
2022-09-16T15:00:44.316Z,1.95
2022-09-16T15:03:52.937Z,1.80
2022-09-16T15:07:03.974Z,1.80
2022-09-16T15:10:18.084Z,2.58
2022-09-16T15:13:24.217Z,1.63
2022-09-16T15:16:28.523Z,2.30
2022-09-16T15:19:35.431Z,2.25
2022-09-16T15:22:41.738Z,1.92
2022-09-16T15:25:54.872Z,2.10
2022-09-16T15:29:00.732Z,2.63
2022-09-16T15:32:19.595Z,2.20
2022-09-16T15:35:25.233Z,2.00
2022-09-16T15:38:29.633Z,1.60
2022-09-16T15:41:34.419Z,1.60
2022-09-16T15:44:38.638Z,1.80
2022-09-16T15:47:59.447Z,1.45
2022-09-16T15:51:06.809Z,2.17
2022-09-16T15:54:18.839Z,1.60
2022-09-16T15:57:31.766Z,2.10
2022-09-16T16:00:59.361Z,1.73
2022-09-16T16:04:04.664Z,1.90
2022-09-16T16:07:09.013Z,2.15
2022-09-16T16:10:15.196Z,2.15
2022-09-16T16:13:19.818Z,2.60
2022-09-16T16:16:23.243Z,2.35
2022-09-16T16:19:26.831Z,2.70
2022-09-16T16:22:30.003Z,2.72
2022-09-16T16:25:33.492Z,2.65
2022-09-16T16:28:39.177Z,2.40
2022-09-16T16:31:42.422Z,2.30
2022-09-16T16:34:47.850Z,2.60
2022-09-16T16:37:51.036Z,2.40
2022-09-16T16:40:54.242Z,2.17
2022-09-16T16:43:58.976Z,2.33
2022-09-16T16:47:02.693Z,2.78
2022-09-16T16:50:06.706Z,2.53
2022-09-16T16:53:10.051Z,2.47
2022-09-16T16:56:15.652Z,2.45
2022-09-16T16:59:21.304Z,2.33
2022-09-16T17:02:24.798Z,2.53
2022-09-16T17:05:28.173Z,2.30
2022-09-16T17:08:31.414Z,2.35
2022-09-16T17:11:35.163Z,2.25
2022-09-16T17:14:39.701Z,2.40
2022-09-16T17:17:42.962Z,2.30
2022-09-16T17:20:46.121Z,2.50
2022-09-16T17:23:49.498Z,3.20
2022-09-16T17:26:52.739Z,2.60
2022-09-16T17:29:57.314Z,3.50
2022-09-16T17:33:00.585Z,3.45
2022-09-16T17:36:05.946Z,5.07
2022-09-16T17:39:13.505Z,3.10
2022-09-16T17:42:17.017Z,5.00
2022-09-16T17:45:21.612Z,2.72
2022-09-16T17:48:24.884Z,3.55
2022-09-16T17:51:28.409Z,3.17
2022-09-16T17:54:31.602Z,3.33
2022-09-16T17:57:34.867Z,3.15
2022-09-16T18:00:39.979Z,2.95
2022-09-16T18:03:45.726Z,4.82
2022-09-16T18:06:48.954Z,3.95
2022-09-16T18:09:52.226Z,3.28
2022-09-16T18:12:55.460Z,4.60
2022-09-16T18:16:05.124Z,4.00
2022-09-16T18:19:08.706Z,3.22
2022-09-16T18:22:11.995Z,2.85
2022-09-16T18:25:15.388Z,2.92
2022-09-16T18:28:18.644Z,3.00
2022-09-16T18:31:24.601Z,3.13
2022-09-16T18:34:32.649Z,3.17
2022-09-16T18:37:36.662Z,2.83
2022-09-16T18:40:40.004Z,2.63
2022-09-16T18:43:45.237Z,2.88
2022-09-16T18:46:50.028Z,2.92
2022-09-16T18:49:53.292Z,2.63
2022-09-16T18:52:56.450Z,2.60
2022-09-16T18:56:00.369Z,2.50
2022-09-16T18:59:23.437Z,3.20
2022-09-16T19:02:28.728Z,2.40
2022-09-16T19:05:31.829Z,2.25
2022-09-16T19:08:36.083Z,2.33
2022-09-16T19:11:40.151Z,3.42
2022-09-16T19:14:43.620Z,2.70
2022-09-16T19:17:48.264Z,2.53
2022-09-16T19:20:51.605Z,3.13
2022-09-16T19:23:57.313Z,3.22
2022-09-16T19:27:00.545Z,3.00
2022-09-16T19:30:04.086Z,3.10
2022-09-16T19:33:08.737Z,3.20
2022-09-16T19:36:13.327Z,3.40
2022-09-16T19:39:16.633Z,3.45
2022-09-16T19:42:19.876Z,3.20
2022-09-16T19:45:27.712Z,3.40
2022-09-16T19:48:33.752Z,3.25
2022-09-16T19:51:37.827Z,2.90
2022-09-16T19:54:41.075Z,3.30
2022-09-16T19:57:44.287Z,3.70
2022-09-16T20:00:56.309Z,4.35
2022-09-16T20:04:01.684Z,4.40
2022-09-16T20:07:05.912Z,3.90
2022-09-16T20:10:09.757Z,3.38
2022-09-16T20:13:13.497Z,3.67
2022-09-16T20:16:17.513Z,3.20
2022-09-16T20:19:22.124Z,3.70
2022-09-16T20:22:25.442Z,3.33
2022-09-16T20:25:56.638Z,3.33
2022-09-16T20:29:00.513Z,3.28
2022-09-16T20:32:04.127Z,3.83
2022-09-16T20:35:09.828Z,3.35
2022-09-16T20:38:13.109Z,4.10
2022-09-16T20:41:19.100Z,3.53
2022-09-16T20:44:22.349Z,3.72
2022-09-16T20:47:29.234Z,4.60
2022-09-16T20:50:33.951Z,4.38
2022-09-16T20:53:38.258Z,4.80
2022-09-16T20:56:43.396Z,4.53
2022-09-16T20:59:46.643Z,4.30
2022-09-16T21:02:49.920Z,4.00
2022-09-16T21:06:00.783Z,4.40
2022-09-16T21:09:06.808Z,3.63
2022-09-16T21:12:09.958Z,4.00
2022-09-16T21:15:13.170Z,3.33
2022-09-16T21:18:16.418Z,3.20
2022-09-16T21:21:21.059Z,3.60
2022-09-16T21:24:24.257Z,3.78
2022-09-16T21:27:27.458Z,4.25
2022-09-16T21:30:30.633Z,3.88
2022-09-16T21:33:35.997Z,3.65
2022-09-16T21:36:41.093Z,3.80
2022-09-16T21:39:44.255Z,3.22
2022-09-16T21:42:47.467Z,3.60
2022-09-16T21:45:50.640Z,3.25
2022-09-16T21:48:56.326Z,3.83
2022-09-16T21:52:00.880Z,3.70
2022-09-16T21:55:04.237Z,3.23
2022-09-16T21:58:07.701Z,3.47
2022-09-16T22:01:13.329Z,3.50
2022-09-16T22:04:18.227Z,3.33
2022-09-16T22:07:22.847Z,3.20
2022-09-16T22:10:26.017Z,3.45
2022-09-16T22:13:31.017Z,3.33
2022-09-16T22:16:37.218Z,4.28
2022-09-16T22:19:40.438Z,3.67
2022-09-16T22:22:45.076Z,3.80
2022-09-16T22:25:48.618Z,5.97
2022-09-16T22:28:52.272Z,3.38
2022-09-16T22:31:55.501Z,3.55
2022-09-16T22:34:58.733Z,3.50
2022-09-16T22:38:04.167Z,3.60
2022-09-16T22:41:09.338Z,3.20
2022-09-16T22:44:12.901Z,3.67
2022-09-16T22:47:16.131Z,3.38
2022-09-16T22:50:19.241Z,2.95
2022-09-16T22:53:24.789Z,3.20
2022-09-16T22:56:31.996Z,2.65
2022-09-16T22:59:35.469Z,3.30
2022-09-16T23:02:38.674Z,4.00
2022-09-16T23:05:42.083Z,3.20
2022-09-16T23:08:47.147Z,3.42
2022-09-16T23:11:50.447Z,2.92
2022-09-16T23:14:53.635Z,3.20
2022-09-16T23:17:56.894Z,3.08
2022-09-16T23:21:01.509Z,3.40
2022-09-16T23:24:08.009Z,2.45
2022-09-16T23:27:11.185Z,3.30
2022-09-16T23:30:14.767Z,2.80
2022-09-16T23:33:17.988Z,3.00
2022-09-16T23:36:21.359Z,2.88
2022-09-16T23:39:26.205Z,2.70
2022-09-16T23:42:29.417Z,2.97
2022-09-16T23:45:32.641Z,2.83
2022-09-16T23:48:35.820Z,2.60
2022-09-16T23:51:39.288Z,2.75
2022-09-16T23:54:43.891Z,2.25
2022-09-16T23:57:47.267Z,2.40
